This is the latest recevied weather packets stored in our database for station/object KF0JJO. If no packets are shown the sender has not sent any weather packets the latest 10 day(s).
| Time | Temp. | Humidity | Pressure | Rain* | Wind** | Luminosity | Snow |
|---|---|---|---|---|---|---|---|
| 1776971296 | 18.89° C | 91% | 1030.7 hPa | 1.78 mm | - | 61 W/m² | - |
| 1776970993 | 18.89° C | 91% | 1031 hPa | 1.78 mm | - | 53 W/m² | - |
| 1776970690 | 18.89° C | 91% | 1030.8 hPa | 0 mm | - | 40 W/m² | - |
| 1776970387 | 18.89° C | 90% | 1030.9 hPa | 1.27 mm | - | 52 W/m² | - |
| 1776970083 | 18.89° C | 90% | 1031.2 hPa | 1.27 mm | - | 46 W/m² | - |
| 1776969780 | 18.89° C | 89% | 1031.3 hPa | 1.78 mm | - | 73 W/m² | - |
| 1776969476 | 19.44° C | 88% | 1031.4 hPa | 1.78 mm | - | 79 W/m² | - |
| 1776969172 | 20° C | 86% | 1031.6 hPa | 0 mm | - | 72 W/m² | - |
| 1776968869 | 20° C | 83% | 1031.6 hPa | 0 mm | - | 101 W/m² | - |
| 1776968563 | 21.11° C | 79% | 1031.6 hPa | 0 mm | - | 85 W/m² | - |
| 1776968259 | 21.67° C | 74% | 1031.3 hPa | 0 mm | - | 106 W/m² | - |
| 1776967956 | 22.22° C | 71% | 1031.3 hPa | 0 mm | - | 146 W/m² | - |
| 1776967654 | 22.22° C | 69% | 1031.3 hPa | 0 mm | - | 184 W/m² | - |
| 1776967348 | 21.67° C | 70% | 1031.1 hPa | 0 mm | - | 152 W/m² | - |
| 1776967047 | 21.67° C | 70% | 1031.3 hPa | 0 mm | - | 127 W/m² | - |
| 1776966743 | 22.22° C | 70% | 1031.4 hPa | 0 mm | - | 171 W/m² | - |
| 1776966439 | 22.22° C | 69% | 1031.5 hPa | 0 mm | - | 177 W/m² | - |
| 1776966135 | 21.67° C | 68% | 1031.6 hPa | 0 mm | - | 158 W/m² | - |
| 1776965830 | 21.67° C | 68% | 1031.7 hPa | 0 mm | - | 92 W/m² | - |
| 1776965529 | 21.67° C | 67% | 1031.6 hPa | 0 mm | - | 58 W/m² | - |
| 1776965228 | 21.67° C | 67% | 1031.8 hPa | 0 mm | - | 73 W/m² | - |
| 1776964923 | 21.67° C | 67% | 1031.7 hPa | 0 mm | - | 71 W/m² | - |
| 1776964623 | 21.67° C | 67% | 1031.7 hPa | 0 mm | - | 74 W/m² | - |
| 1776964322 | 21.67° C | 67% | 1031.9 hPa | 0 mm | - | 104 W/m² | - |
| 1776964017 | 21.67° C | 67% | 1031.9 hPa | 0 mm | - | 88 W/m² | - |
* Rain latest hour (hover to see other rain measurements)
** Current wind speed in m/s (hover to see current wind gust speed)